sensor_id;sensor_type;location;lat;lon;timestamp;P1;durP1;ratioP1;P2;durP2;ratioP2
19032;SDS011;9649;51.042;13.804;2022-07-29T00:00:36;4.75;;;1.58;;
19032;SDS011;9649;51.042;13.804;2022-07-29T00:05:39;7.38;;;2.05;;
19032;SDS011;9649;51.042;13.804;2022-07-29T00:10:46;7.60;;;1.83;;
19032;SDS011;9649;51.042;13.804;2022-07-29T00:15:53;3.33;;;1.80;;
19032;SDS011;9649;51.042;13.804;2022-07-29T00:21:05;6.07;;;1.90;;
19032;SDS011;9649;51.042;13.804;2022-07-29T00:26:12;6.25;;;1.90;;
19032;SDS011;9649;51.042;13.804;2022-07-29T00:31:16;6.38;;;2.22;;
19032;SDS011;9649;51.042;13.804;2022-07-29T00:36:19;8.52;;;2.10;;
19032;SDS011;9649;51.042;13.804;2022-07-29T00:41:22;12.63;;;2.40;;
19032;SDS011;9649;51.042;13.804;2022-07-29T00:46:26;3.88;;;1.92;;
19032;SDS011;9649;51.042;13.804;2022-07-29T00:51:29;9.48;;;2.80;;
19032;SDS011;9649;51.042;13.804;2022-07-29T00:56:34;7.07;;;2.65;;
19032;SDS011;9649;51.042;13.804;2022-07-29T01:01:38;7.47;;;2.70;;
19032;SDS011;9649;51.042;13.804;2022-07-29T01:06:41;9.88;;;2.92;;
19032;SDS011;9649;51.042;13.804;2022-07-29T01:11:45;7.18;;;3.13;;
19032;SDS011;9649;51.042;13.804;2022-07-29T01:16:51;16.17;;;4.28;;
19032;SDS011;9649;51.042;13.804;2022-07-29T01:22:07;6.97;;;4.05;;
19032;SDS011;9649;51.042;13.804;2022-07-29T01:27:26;14.10;;;6.13;;
19032;SDS011;9649;51.042;13.804;2022-07-29T01:32:47;20.42;;;9.10;;
19032;SDS011;9649;51.042;13.804;2022-07-29T01:38:01;23.52;;;10.73;;
19032;SDS011;9649;51.042;13.804;2022-07-29T01:43:11;26.15;;;11.90;;
19032;SDS011;9649;51.042;13.804;2022-07-29T01:48:19;30.58;;;13.70;;
19032;SDS011;9649;51.042;13.804;2022-07-29T01:53:26;30.02;;;13.68;;
19032;SDS011;9649;51.042;13.804;2022-07-29T01:58:38;28.15;;;14.20;;
19032;SDS011;9649;51.042;13.804;2022-07-29T02:03:44;23.60;;;12.82;;
19032;SDS011;9649;51.042;13.804;2022-07-29T02:08:48;27.58;;;12.88;;
19032;SDS011;9649;51.042;13.804;2022-07-29T02:13:54;26.38;;;12.90;;
19032;SDS011;9649;51.042;13.804;2022-07-29T02:19:00;24.92;;;13.60;;
19032;SDS011;9649;51.042;13.804;2022-07-29T02:24:04;21.58;;;12.20;;
19032;SDS011;9649;51.042;13.804;2022-07-29T02:29:08;22.40;;;13.05;;
19032;SDS011;9649;51.042;13.804;2022-07-29T02:34:13;31.27;;;15.63;;
19032;SDS011;9649;51.042;13.804;2022-07-29T02:39:20;30.60;;;16.15;;
19032;SDS011;9649;51.042;13.804;2022-07-29T02:44:25;29.83;;;16.23;;
19032;SDS011;9649;51.042;13.804;2022-07-29T02:49:36;30.10;;;14.65;;
19032;SDS011;9649;51.042;13.804;2022-07-29T02:54:41;29.08;;;13.63;;
19032;SDS011;9649;51.042;13.804;2022-07-29T02:59:47;26.77;;;13.10;;
19032;SDS011;9649;51.042;13.804;2022-07-29T03:04:53;31.30;;;14.85;;
19032;SDS011;9649;51.042;13.804;2022-07-29T03:09:58;37.05;;;17.25;;
19032;SDS011;9649;51.042;13.804;2022-07-29T03:15:01;39.83;;;19.38;;
19032;SDS011;9649;51.042;13.804;2022-07-29T03:20:07;33.35;;;18.88;;
19032;SDS011;9649;51.042;13.804;2022-07-29T03:25:11;42.72;;;20.85;;
19032;SDS011;9649;51.042;13.804;2022-07-29T03:30:15;34.97;;;17.48;;
19032;SDS011;9649;51.042;13.804;2022-07-29T03:35:23;24.52;;;13.68;;
19032;SDS011;9649;51.042;13.804;2022-07-29T03:40:28;28.70;;;13.85;;
19032;SDS011;9649;51.042;13.804;2022-07-29T03:45:35;26.95;;;14.48;;
19032;SDS011;9649;51.042;13.804;2022-07-29T03:50:40;27.98;;;14.00;;
19032;SDS011;9649;51.042;13.804;2022-07-29T03:55:45;31.25;;;14.90;;
19032;SDS011;9649;51.042;13.804;2022-07-29T04:00:50;26.65;;;13.73;;
19032;SDS011;9649;51.042;13.804;2022-07-29T04:05:59;23.60;;;13.88;;
19032;SDS011;9649;51.042;13.804;2022-07-29T04:11:03;25.65;;;13.82;;
19032;SDS011;9649;51.042;13.804;2022-07-29T04:16:07;30.70;;;14.45;;
19032;SDS011;9649;51.042;13.804;2022-07-29T04:21:11;26.75;;;13.20;;
19032;SDS011;9649;51.042;13.804;2022-07-29T04:26:14;24.63;;;13.00;;
19032;SDS011;9649;51.042;13.804;2022-07-29T04:31:17;27.67;;;13.93;;
19032;SDS011;9649;51.042;13.804;2022-07-29T04:36:27;25.75;;;12.95;;
19032;SDS011;9649;51.042;13.804;2022-07-29T04:41:30;26.50;;;13.05;;
19032;SDS011;9649;51.042;13.804;2022-07-29T04:46:34;21.60;;;12.45;;
19032;SDS011;9649;51.042;13.804;2022-07-29T04:51:39;25.85;;;12.68;;
19032;SDS011;9649;51.042;13.804;2022-07-29T04:56:41;24.88;;;11.68;;
19032;SDS011;9649;51.042;13.804;2022-07-29T05:01:44;27.15;;;11.90;;
19032;SDS011;9649;51.042;13.804;2022-07-29T05:06:48;24.75;;;11.98;;
19032;SDS011;9649;51.042;13.804;2022-07-29T05:11:51;29.40;;;13.73;;
19032;SDS011;9649;51.042;13.804;2022-07-29T05:16:54;24.27;;;12.07;;
19032;SDS011;9649;51.042;13.804;2022-07-29T05:21:59;33.38;;;12.75;;
19032;SDS011;9649;51.042;13.804;2022-07-29T05:27:02;35.17;;;16.45;;
19032;SDS011;9649;51.042;13.804;2022-07-29T05:32:05;33.22;;;17.70;;
19032;SDS011;9649;51.042;13.804;2022-07-29T05:37:09;43.78;;;20.48;;
19032;SDS011;9649;51.042;13.804;2022-07-29T05:42:14;46.65;;;23.25;;
19032;SDS011;9649;51.042;13.804;2022-07-29T05:47:17;42.15;;;21.15;;
19032;SDS011;9649;51.042;13.804;2022-07-29T05:52:21;41.72;;;20.75;;
19032;SDS011;9649;51.042;13.804;2022-07-29T05:57:24;36.75;;;20.98;;
19032;SDS011;9649;51.042;13.804;2022-07-29T06:02:27;39.55;;;18.90;;
19032;SDS011;9649;51.042;13.804;2022-07-29T06:07:31;37.45;;;19.85;;
19032;SDS011;9649;51.042;13.804;2022-07-29T06:12:36;40.50;;;18.98;;
19032;SDS011;9649;51.042;13.804;2022-07-29T06:17:39;39.47;;;17.90;;
19032;SDS011;9649;51.042;13.804;2022-07-29T06:23:02;35.80;;;18.00;;
19032;SDS011;9649;51.042;13.804;2022-07-29T06:28:05;30.45;;;15.45;;
19032;SDS011;9649;51.042;13.804;2022-07-29T06:33:08;36.42;;;17.15;;
19032;SDS011;9649;51.042;13.804;2022-07-29T06:38:13;32.75;;;16.08;;
19032;SDS011;9649;51.042;13.804;2022-07-29T06:43:33;34.42;;;16.52;;
19032;SDS011;9649;51.042;13.804;2022-07-29T06:48:52;29.45;;;14.38;;
19032;SDS011;9649;51.042;13.804;2022-07-29T06:53:57;30.83;;;15.43;;
19032;SDS011;9649;51.042;13.804;2022-07-29T06:59:20;27.85;;;15.02;;
19032;SDS011;9649;51.042;13.804;2022-07-29T07:04:33;36.10;;;15.75;;
19032;SDS011;9649;51.042;13.804;2022-07-29T07:09:37;32.15;;;15.68;;
19032;SDS011;9649;51.042;13.804;2022-07-29T07:14:41;35.88;;;14.23;;
19032;SDS011;9649;51.042;13.804;2022-07-29T07:19:44;33.10;;;13.48;;
19032;SDS011;9649;51.042;13.804;2022-07-29T07:24:48;32.17;;;12.38;;
19032;SDS011;9649;51.042;13.804;2022-07-29T07:29:51;25.88;;;12.43;;
19032;SDS011;9649;51.042;13.804;2022-07-29T07:34:54;26.50;;;13.13;;
19032;SDS011;9649;51.042;13.804;2022-07-29T07:39:58;24.25;;;12.50;;
19032;SDS011;9649;51.042;13.804;2022-07-29T07:45:00;25.20;;;11.85;;
19032;SDS011;9649;51.042;13.804;2022-07-29T07:50:14;33.33;;;12.68;;
19032;SDS011;9649;51.042;13.804;2022-07-29T07:55:21;26.98;;;11.73;;
19032;SDS011;9649;51.042;13.804;2022-07-29T08:00:23;24.92;;;11.70;;
19032;SDS011;9649;51.042;13.804;2022-07-29T08:05:26;21.42;;;10.45;;
19032;SDS011;9649;51.042;13.804;2022-07-29T08:10:31;26.13;;;11.63;;
19032;SDS011;9649;51.042;13.804;2022-07-29T08:15:52;18.95;;;9.75;;
19032;SDS011;9649;51.042;13.804;2022-07-29T08:20:59;21.98;;;10.00;;
19032;SDS011;9649;51.042;13.804;2022-07-29T08:26:03;19.17;;;9.15;;
19032;SDS011;9649;51.042;13.804;2022-07-29T08:31:07;19.88;;;8.95;;
19032;SDS011;9649;51.042;13.804;2022-07-29T08:36:09;23.00;;;8.38;;
19032;SDS011;9649;51.042;13.804;2022-07-29T08:41:15;18.15;;;7.85;;
19032;SDS011;9649;51.042;13.804;2022-07-29T08:46:20;16.23;;;7.72;;
19032;SDS011;9649;51.042;13.804;2022-07-29T08:51:24;15.70;;;8.40;;
19032;SDS011;9649;51.042;13.804;2022-07-29T08:56:30;17.27;;;7.82;;
19032;SDS011;9649;51.042;13.804;2022-07-29T09:01:33;17.13;;;7.95;;
19032;SDS011;9649;51.042;13.804;2022-07-29T09:06:43;14.43;;;7.78;;
19032;SDS011;9649;51.042;13.804;2022-07-29T09:11:48;14.75;;;8.27;;
19032;SDS011;9649;51.042;13.804;2022-07-29T09:16:52;22.67;;;8.45;;
19032;SDS011;9649;51.042;13.804;2022-07-29T09:21:57;15.40;;;7.70;;
19032;SDS011;9649;51.042;13.804;2022-07-29T09:27:08;16.30;;;7.50;;
19032;SDS011;9649;51.042;13.804;2022-07-29T09:32:13;15.02;;;9.30;;
19032;SDS011;9649;51.042;13.804;2022-07-29T09:37:25;19.17;;;7.60;;
19032;SDS011;9649;51.042;13.804;2022-07-29T09:42:30;19.75;;;8.70;;
19032;SDS011;9649;51.042;13.804;2022-07-29T09:47:40;18.92;;;8.77;;
19032;SDS011;9649;51.042;13.804;2022-07-29T09:52:46;15.73;;;8.80;;
19032;SDS011;9649;51.042;13.804;2022-07-29T09:57:52;21.13;;;10.25;;
19032;SDS011;9649;51.042;13.804;2022-07-29T10:08:13;18.42;;;9.15;;
19032;SDS011;9649;51.042;13.804;2022-07-29T10:13:48;11.35;;;6.57;;
19032;SDS011;9649;51.042;13.804;2022-07-29T10:18:53;9.32;;;5.80;;
19032;SDS011;9649;51.042;13.804;2022-07-29T10:23:56;10.60;;;5.03;;
19032;SDS011;9649;51.042;13.804;2022-07-29T10:29:03;10.50;;;4.55;;
19032;SDS011;9649;51.042;13.804;2022-07-29T10:34:07;7.93;;;4.30;;
19032;SDS011;9649;51.042;13.804;2022-07-29T10:39:24;3.42;;;2.15;;
19032;SDS011;9649;51.042;13.804;2022-07-29T10:44:50;3.47;;;1.70;;
19032;SDS011;9649;51.042;13.804;2022-07-29T10:49:55;4.00;;;1.63;;
19032;SDS011;9649;51.042;13.804;2022-07-29T10:55:02;9.80;;;2.00;;
19032;SDS011;9649;51.042;13.804;2022-07-29T11:00:27;4.82;;;1.73;;
19032;SDS011;9649;51.042;13.804;2022-07-29T11:05:41;4.30;;;1.70;;
19032;SDS011;9649;51.042;13.804;2022-07-29T11:22:02;4.22;;;1.90;;
19032;SDS011;9649;51.042;13.804;2022-07-29T11:27:13;6.10;;;2.08;;
19032;SDS011;9649;51.042;13.804;2022-07-29T11:32:22;3.33;;;1.90;;
19032;SDS011;9649;51.042;13.804;2022-07-29T11:37:29;5.05;;;1.83;;
19032;SDS011;9649;51.042;13.804;2022-07-29T11:42:43;3.03;;;1.85;;
19032;SDS011;9649;51.042;13.804;2022-07-29T11:47:53;4.32;;;2.03;;
19032;SDS011;9649;51.042;13.804;2022-07-29T11:53:19;2.90;;;2.20;;
19032;SDS011;9649;51.042;13.804;2022-07-29T11:58:23;4.30;;;2.47;;
19032;SDS011;9649;51.042;13.804;2022-07-29T12:03:28;6.35;;;2.72;;
19032;SDS011;9649;51.042;13.804;2022-07-29T12:08:39;8.45;;;2.90;;
19032;SDS011;9649;51.042;13.804;2022-07-29T12:13:44;4.60;;;2.28;;
19032;SDS011;9649;51.042;13.804;2022-07-29T12:18:57;1.85;;;1.70;;
19032;SDS011;9649;51.042;13.804;2022-07-29T12:24:02;6.38;;;2.35;;
19032;SDS011;9649;51.042;13.804;2022-07-29T12:29:14;8.20;;;2.17;;
19032;SDS011;9649;51.042;13.804;2022-07-29T12:34:35;4.78;;;2.45;;
19032;SDS011;9649;51.042;13.804;2022-07-29T12:39:38;6.55;;;2.00;;
19032;SDS011;9649;51.042;13.804;2022-07-29T12:44:45;4.43;;;2.28;;
19032;SDS011;9649;51.042;13.804;2022-07-29T12:49:50;5.10;;;2.17;;
19032;SDS011;9649;51.042;13.804;2022-07-29T12:55:09;6.68;;;2.08;;
19032;SDS011;9649;51.042;13.804;2022-07-29T13:00:12;2.88;;;2.05;;
19032;SDS011;9649;51.042;13.804;2022-07-29T13:05:17;3.15;;;2.08;;
19032;SDS011;9649;51.042;13.804;2022-07-29T13:10:20;4.22;;;2.50;;
19032;SDS011;9649;51.042;13.804;2022-07-29T13:15:24;5.32;;;2.20;;
19032;SDS011;9649;51.042;13.804;2022-07-29T13:20:29;3.35;;;2.17;;
19032;SDS011;9649;51.042;13.804;2022-07-29T13:25:34;2.05;;;1.80;;
19032;SDS011;9649;51.042;13.804;2022-07-29T13:30:41;3.03;;;1.80;;
19032;SDS011;9649;51.042;13.804;2022-07-29T13:35:46;4.40;;;2.00;;
19032;SDS011;9649;51.042;13.804;2022-07-29T13:40:49;4.40;;;1.92;;
19032;SDS011;9649;51.042;13.804;2022-07-29T13:45:52;7.25;;;1.90;;
19032;SDS011;9649;51.042;13.804;2022-07-29T13:50:56;7.75;;;1.98;;
19032;SDS011;9649;51.042;13.804;2022-07-29T13:55:59;6.85;;;2.22;;
19032;SDS011;9649;51.042;13.804;2022-07-29T14:01:02;6.18;;;2.00;;
19032;SDS011;9649;51.042;13.804;2022-07-29T14:06:06;3.45;;;1.88;;
19032;SDS011;9649;51.042;13.804;2022-07-29T14:11:09;3.53;;;2.22;;
19032;SDS011;9649;51.042;13.804;2022-07-29T14:16:11;2.67;;;1.80;;
19032;SDS011;9649;51.042;13.804;2022-07-29T14:21:16;4.55;;;2.30;;
19032;SDS011;9649;51.042;13.804;2022-07-29T14:26:19;4.00;;;2.20;;
19032;SDS011;9649;51.042;13.804;2022-07-29T14:31:24;5.38;;;2.20;;
19032;SDS011;9649;51.042;13.804;2022-07-29T14:36:28;3.08;;;2.30;;
19032;SDS011;9649;51.042;13.804;2022-07-29T14:41:31;8.27;;;2.42;;
19032;SDS011;9649;51.042;13.804;2022-07-29T14:46:34;5.00;;;2.10;;
19032;SDS011;9649;51.042;13.804;2022-07-29T14:51:38;7.60;;;3.40;;
19032;SDS011;9649;51.042;13.804;2022-07-29T14:56:40;10.55;;;3.85;;
19032;SDS011;9649;51.042;13.804;2022-07-29T15:01:47;7.57;;;4.07;;
19032;SDS011;9649;51.042;13.804;2022-07-29T15:06:52;11.77;;;4.05;;
19032;SDS011;9649;51.042;13.804;2022-07-29T15:11:56;8.98;;;3.53;;
19032;SDS011;9649;51.042;13.804;2022-07-29T15:16:59;10.00;;;6.43;;
19032;SDS011;9649;51.042;13.804;2022-07-29T15:22:06;8.35;;;5.28;;
19032;SDS011;9649;51.042;13.804;2022-07-29T15:27:08;7.50;;;4.50;;
19032;SDS011;9649;51.042;13.804;2022-07-29T15:32:15;8.68;;;6.03;;
19032;SDS011;9649;51.042;13.804;2022-07-29T15:37:19;11.05;;;5.88;;
19032;SDS011;9649;51.042;13.804;2022-07-29T15:42:22;16.30;;;6.90;;
19032;SDS011;9649;51.042;13.804;2022-07-29T15:47:24;19.33;;;6.90;;
19032;SDS011;9649;51.042;13.804;2022-07-29T15:52:29;16.17;;;8.57;;
19032;SDS011;9649;51.042;13.804;2022-07-29T15:57:31;14.35;;;8.65;;
19032;SDS011;9649;51.042;13.804;2022-07-29T16:02:34;13.48;;;8.40;;
19032;SDS011;9649;51.042;13.804;2022-07-29T16:07:39;17.02;;;7.85;;
19032;SDS011;9649;51.042;13.804;2022-07-29T16:12:42;15.68;;;8.27;;
19032;SDS011;9649;51.042;13.804;2022-07-29T16:17:44;15.27;;;7.22;;
19032;SDS011;9649;51.042;13.804;2022-07-29T16:22:48;14.82;;;7.75;;
19032;SDS011;9649;51.042;13.804;2022-07-29T16:27:51;12.25;;;6.88;;
19032;SDS011;9649;51.042;13.804;2022-07-29T16:32:59;12.88;;;6.95;;
19032;SDS011;9649;51.042;13.804;2022-07-29T16:38:09;12.52;;;6.00;;
19032;SDS011;9649;51.042;13.804;2022-07-29T16:43:12;10.10;;;5.25;;
19032;SDS011;9649;51.042;13.804;2022-07-29T16:48:15;8.20;;;4.50;;
19032;SDS011;9649;51.042;13.804;2022-07-29T16:53:20;9.07;;;4.53;;
19032;SDS011;9649;51.042;13.804;2022-07-29T16:58:28;8.38;;;4.10;;
19032;SDS011;9649;51.042;13.804;2022-07-29T17:03:31;6.03;;;3.65;;
19032;SDS011;9649;51.042;13.804;2022-07-29T17:08:35;7.40;;;3.40;;
19032;SDS011;9649;51.042;13.804;2022-07-29T17:13:38;9.10;;;4.38;;
19032;SDS011;9649;51.042;13.804;2022-07-29T17:18:40;5.03;;;3.35;;
19032;SDS011;9649;51.042;13.804;2022-07-29T17:23:44;4.82;;;2.80;;
19032;SDS011;9649;51.042;13.804;2022-07-29T17:28:47;7.78;;;2.65;;
19032;SDS011;9649;51.042;13.804;2022-07-29T17:33:50;6.20;;;2.15;;
19032;SDS011;9649;51.042;13.804;2022-07-29T17:39:01;8.73;;;2.60;;
19032;SDS011;9649;51.042;13.804;2022-07-29T17:44:05;5.97;;;2.70;;
19032;SDS011;9649;51.042;13.804;2022-07-29T17:49:07;5.82;;;2.90;;
19032;SDS011;9649;51.042;13.804;2022-07-29T17:54:12;5.75;;;2.42;;
19032;SDS011;9649;51.042;13.804;2022-07-29T17:59:14;8.65;;;2.42;;
19032;SDS011;9649;51.042;13.804;2022-07-29T18:04:17;7.57;;;2.80;;
19032;SDS011;9649;51.042;13.804;2022-07-29T18:09:22;7.10;;;2.47;;
19032;SDS011;9649;51.042;13.804;2022-07-29T18:14:25;10.80;;;2.47;;
19032;SDS011;9649;51.042;13.804;2022-07-29T18:19:27;3.38;;;2.13;;
19032;SDS011;9649;51.042;13.804;2022-07-29T18:24:32;5.63;;;2.25;;
19032;SDS011;9649;51.042;13.804;2022-07-29T18:29:35;6.65;;;2.33;;
19032;SDS011;9649;51.042;13.804;2022-07-29T18:34:38;11.23;;;2.38;;
19032;SDS011;9649;51.042;13.804;2022-07-29T18:39:42;5.43;;;2.65;;
19032;SDS011;9649;51.042;13.804;2022-07-29T18:44:45;7.38;;;2.40;;
19032;SDS011;9649;51.042;13.804;2022-07-29T18:49:49;6.55;;;2.50;;
19032;SDS011;9649;51.042;13.804;2022-07-29T18:54:53;5.30;;;2.30;;
19032;SDS011;9649;51.042;13.804;2022-07-29T18:59:56;8.80;;;2.63;;
19032;SDS011;9649;51.042;13.804;2022-07-29T19:04:58;7.22;;;2.60;;
19032;SDS011;9649;51.042;13.804;2022-07-29T19:10:03;7.45;;;2.67;;
19032;SDS011;9649;51.042;13.804;2022-07-29T19:15:07;4.18;;;2.55;;
19032;SDS011;9649;51.042;13.804;2022-07-29T19:20:11;3.65;;;2.28;;
19032;SDS011;9649;51.042;13.804;2022-07-29T19:25:15;11.98;;;2.67;;
19032;SDS011;9649;51.042;13.804;2022-07-29T19:30:19;6.93;;;2.35;;
19032;SDS011;9649;51.042;13.804;2022-07-29T19:35:22;9.00;;;2.63;;
19032;SDS011;9649;51.042;13.804;2022-07-29T19:40:27;8.40;;;3.00;;
19032;SDS011;9649;51.042;13.804;2022-07-29T19:45:30;9.90;;;2.88;;
19032;SDS011;9649;51.042;13.804;2022-07-29T19:50:33;6.93;;;2.60;;
19032;SDS011;9649;51.042;13.804;2022-07-29T19:55:38;7.35;;;2.90;;
19032;SDS011;9649;51.042;13.804;2022-07-29T20:00:42;11.40;;;2.80;;
19032;SDS011;9649;51.042;13.804;2022-07-29T20:05:44;5.40;;;2.55;;
19032;SDS011;9649;51.042;13.804;2022-07-29T20:10:52;6.22;;;2.70;;
19032;SDS011;9649;51.042;13.804;2022-07-29T20:15:56;7.53;;;2.45;;
19032;SDS011;9649;51.042;13.804;2022-07-29T20:20:59;5.05;;;2.47;;
19032;SDS011;9649;51.042;13.804;2022-07-29T20:26:06;7.53;;;2.25;;
19032;SDS011;9649;51.042;13.804;2022-07-29T20:31:10;7.95;;;2.88;;
19032;SDS011;9649;51.042;13.804;2022-07-29T20:36:15;10.38;;;3.00;;
19032;SDS011;9649;51.042;13.804;2022-07-29T20:41:19;10.43;;;2.70;;
19032;SDS011;9649;51.042;13.804;2022-07-29T20:46:22;3.85;;;2.72;;
19032;SDS011;9649;51.042;13.804;2022-07-29T20:51:25;5.25;;;2.53;;
19032;SDS011;9649;51.042;13.804;2022-07-29T20:56:29;9.25;;;3.00;;
19032;SDS011;9649;51.042;13.804;2022-07-29T21:01:32;5.72;;;2.80;;
19032;SDS011;9649;51.042;13.804;2022-07-29T21:06:35;5.13;;;2.88;;
19032;SDS011;9649;51.042;13.804;2022-07-29T21:11:39;6.10;;;3.10;;
19032;SDS011;9649;51.042;13.804;2022-07-29T21:16:44;12.52;;;4.10;;
19032;SDS011;9649;51.042;13.804;2022-07-29T21:21:47;4.20;;;3.03;;
19032;SDS011;9649;51.042;13.804;2022-07-29T21:26:51;18.48;;;3.00;;
19032;SDS011;9649;51.042;13.804;2022-07-29T21:32:21;12.45;;;2.90;;
19032;SDS011;9649;51.042;13.804;2022-07-29T21:37:30;13.27;;;3.60;;
19032;SDS011;9649;51.042;13.804;2022-07-29T21:42:34;6.63;;;3.10;;
19032;SDS011;9649;51.042;13.804;2022-07-29T21:47:37;6.85;;;3.10;;
19032;SDS011;9649;51.042;13.804;2022-07-29T21:52:40;6.75;;;3.35;;
19032;SDS011;9649;51.042;13.804;2022-07-29T21:57:44;12.73;;;3.67;;
19032;SDS011;9649;51.042;13.804;2022-07-29T22:02:47;7.55;;;3.15;;
19032;SDS011;9649;51.042;13.804;2022-07-29T22:07:49;5.40;;;3.55;;
19032;SDS011;9649;51.042;13.804;2022-07-29T22:12:58;12.40;;;3.88;;
19032;SDS011;9649;51.042;13.804;2022-07-29T22:18:01;7.53;;;3.53;;
19032;SDS011;9649;51.042;13.804;2022-07-29T22:23:04;9.48;;;3.17;;
19032;SDS011;9649;51.042;13.804;2022-07-29T22:28:10;6.88;;;3.30;;
19032;SDS011;9649;51.042;13.804;2022-07-29T22:33:12;11.98;;;3.33;;
19032;SDS011;9649;51.042;13.804;2022-07-29T22:38:18;9.73;;;3.20;;
19032;SDS011;9649;51.042;13.804;2022-07-29T22:43:22;6.85;;;3.88;;
19032;SDS011;9649;51.042;13.804;2022-07-29T22:48:25;8.90;;;3.72;;
19032;SDS011;9649;51.042;13.804;2022-07-29T22:53:28;6.55;;;3.15;;
19032;SDS011;9649;51.042;13.804;2022-07-29T22:58:32;4.50;;;3.42;;
19032;SDS011;9649;51.042;13.804;2022-07-29T23:03:35;8.18;;;4.10;;
19032;SDS011;9649;51.042;13.804;2022-07-29T23:08:38;12.18;;;4.15;;
19032;SDS011;9649;51.042;13.804;2022-07-29T23:13:42;6.53;;;3.90;;
19032;SDS011;9649;51.042;13.804;2022-07-29T23:18:45;7.88;;;4.20;;
19032;SDS011;9649;51.042;13.804;2022-07-29T23:23:48;4.68;;;3.38;;
19032;SDS011;9649;51.042;13.804;2022-07-29T23:28:52;6.15;;;3.38;;
19032;SDS011;9649;51.042;13.804;2022-07-29T23:33:55;6.75;;;3.47;;
19032;SDS011;9649;51.042;13.804;2022-07-29T23:38:57;7.72;;;3.83;;
19032;SDS011;9649;51.042;13.804;2022-07-29T23:44:01;7.30;;;3.85;;
19032;SDS011;9649;51.042;13.804;2022-07-29T23:49:04;15.27;;;6.13;;
19032;SDS011;9649;51.042;13.804;2022-07-29T23:54:07;18.10;;;8.35;;
19032;SDS011;9649;51.042;13.804;2022-07-29T23:59:11;19.00;;;8.13;;
